Time;durP1;ratioP1;P1;durP2;ratioP2;P2;SDS_P1;SDS_P2;PMS_P1;PMS_P2;Temp;Humidity;BMP_temperature;BMP_pressure;BME280_temperature;BME280_humidity;BME280_pressure;Samples;Min_cycle;Max_cycle;Signal;HPM_P1;HPM_P2
2022/12/03 00:02:19;;;;;;;25.70;8.30;;;2.30;99.90;;;;;;5038773;28;20032;-77
2022/12/03 00:04:45;;;;;;;24.75;7.82;;;2.30;99.90;;;;;;5038507;28;20043;-77
2022/12/03 00:07:10;;;;;;;23.17;7.63;;;2.30;99.90;;;;;;5056783;28;20131;-77
2022/12/03 00:09:36;;;;;;;23.05;7.50;;;2.30;99.90;;;;;;5038376;28;20440;-77
2022/12/03 00:12:02;;;;;;;22.40;8.02;;;2.30;99.90;;;;;;5056675;28;20079;-77
2022/12/03 00:14:27;;;;;;;21.23;7.88;;;2.30;99.90;;;;;;5056618;28;20096;-77
2022/12/03 00:16:53;;;;;;;26.20;8.38;;;2.30;99.90;;;;;;5037888;28;20052;-77
2022/12/03 00:19:19;;;;;;;23.58;8.20;;;2.30;99.90;;;;;;5055874;28;20017;-77
2022/12/03 00:21:44;;;;;;;27.63;8.95;;;2.30;99.90;;;;;;5038025;28;20079;-77
2022/12/03 00:24:10;;;;;;;24.95;8.70;;;2.30;99.90;;;;;;5056460;28;20372;-77
2022/12/03 00:26:36;;;;;;;26.27;9.32;;;2.30;99.90;;;;;;5037911;28;20613;-77
2022/12/03 00:29:04;;;;;;;25.60;8.70;;;2.30;99.90;;;;;;5055896;28;20025;-77
2022/12/03 00:31:29;;;;;;;26.92;9.25;;;2.30;99.90;;;;;;5055417;28;20032;-77
2022/12/03 00:33:55;;;;;;;26.20;8.05;;;2.30;99.90;;;;;;5037075;28;20018;-77
2022/12/03 00:36:20;;;;;;;29.45;9.15;;;2.30;99.90;;;;;;5055621;28;20100;-77
2022/12/03 00:38:46;;;;;;;21.08;8.50;;;2.40;99.90;;;;;;5037798;28;20132;-77
2022/12/03 00:41:12;;;;;;;25.55;9.30;;;2.40;99.90;;;;;;5038001;28;20082;-77
2022/12/03 00:43:37;;;;;;;22.83;8.70;;;2.40;99.90;;;;;;5037554;28;20112;-77
2022/12/03 00:46:03;;;;;;;25.10;8.45;;;4.50;99.90;;;;;;5037646;28;20052;-77
2022/12/03 00:48:31;;;;;;;24.83;8.32;;;2.40;99.90;;;;;;5055258;28;20040;-77
2022/12/03 00:50:57;;;;;;;25.13;8.65;;;2.40;99.90;;;;;;5037874;28;20028;-78
2022/12/03 00:53:22;;;;;;;24.65;8.30;;;2.40;99.90;;;;;;5037422;28;20025;-77
2022/12/03 00:55:49;;;;;;;25.08;8.65;;;2.40;99.90;;;;;;5037166;28;20029;-77
2022/12/03 00:58:16;;;;;;;28.33;9.40;;;2.40;99.90;;;;;;5037376;28;20484;-77
2022/12/03 01:00:41;;;;;;;27.10;9.23;;;2.30;99.90;;;;;;5055216;28;20025;-77
2022/12/03 01:03:07;;;;;;;30.48;8.68;;;2.30;99.90;;;;;;5055295;28;20052;-77
2022/12/03 01:05:32;;;;;;;26.35;8.48;;;2.50;99.90;;;;;;5037232;28;20384;-77
2022/12/03 01:07:58;;;;;;;26.80;8.20;;;2.40;99.90;;;;;;5055040;28;20051;-77
2022/12/03 01:10:23;;;;;;;25.25;8.57;;;2.40;99.90;;;;;;5037178;28;20025;-77
2022/12/03 01:12:49;;;;;;;23.15;7.80;;;2.40;99.90;;;;;;5055536;28;20027;-77
2022/12/03 01:15:14;;;;;;;23.30;8.00;;;2.40;99.90;;;;;;5037693;28;20028;-77
2022/12/03 01:17:40;;;;;;;27.23;7.57;;;3.60;99.90;;;;;;5037947;28;20029;-77
2022/12/03 01:20:08;;;;;;;24.88;8.27;;;2.40;99.90;;;;;;5037808;28;20017;-77
2022/12/03 01:22:34;;;;;;;25.27;8.95;;;2.50;99.90;;;;;;5037981;28;20460;-77
2022/12/03 01:25:00;;;;;;;21.75;7.38;;;2.40;99.90;;;;;;5037776;28;20476;-77
2022/12/03 01:27:28;;;;;;;25.63;8.60;;;2.40;99.90;;;;;;5055671;28;20021;-77
2022/12/03 01:29:54;;;;;;;25.27;8.80;;;2.40;99.90;;;;;;5055294;28;20096;-77
2022/12/03 01:32:19;;;;;;;24.67;7.57;;;2.40;99.90;;;;;;5037650;28;20092;-77
2022/12/03 01:34:50;;;;;;;23.15;7.75;;;2.30;99.90;;;;;;5037497;28;20383;-77
2022/12/03 01:37:16;;;;;;;28.73;8.57;;;2.30;99.90;;;;;;5055652;28;20099;-78
2022/12/03 01:39:42;;;;;;;25.30;8.23;;;2.40;99.90;;;;;;5037213;28;20107;-79
2022/12/03 01:42:14;;;;;;;27.38;8.30;;;2.40;99.90;;;;;;5055661;28;20396;-79
2022/12/03 01:44:40;;;;;;;27.92;8.18;;;2.30;99.90;;;;;;5055488;28;20025;-77
2022/12/03 01:47:12;;;;;;;28.75;8.75;;;2.40;99.90;;;;;;5037443;28;20139;-78
2022/12/03 01:49:54;;;;;;;24.25;8.00;;;2.50;99.90;;;;;;5037258;28;20086;-77
2022/12/03 01:52:23;;;;;;;28.38;8.63;;;2.30;99.90;;;;;;5056250;28;20028;-78
2022/12/03 01:54:54;;;;;;;22.85;7.50;;;2.40;99.90;;;;;;5055365;28;20476;-79
2022/12/03 01:57:38;;;;;;;24.45;7.65;;;2.30;99.90;;;;;;5037179;28;20043;-78
2022/12/03 02:00:04;;;;;;;29.45;9.00;;;2.40;99.90;;;;;;5055055;28;20107;-78
2022/12/03 02:02:31;;;;;;;27.75;7.93;;;2.40;99.90;;;;;;5054964;28;20021;-78
2022/12/03 02:04:58;;;;;;;25.23;7.57;;;2.40;99.90;;;;;;5055173;28;20064;-79
2022/12/03 02:07:42;;;;;;;24.38;7.97;;;2.40;99.90;;;;;;5037131;28;20094;-78
2022/12/03 02:10:08;;;;;;;28.23;8.57;;;2.40;99.90;;;;;;5054775;28;20387;-77
2022/12/03 02:12:39;;;;;;;27.67;8.65;;;2.40;99.90;;;;;;5037263;28;20017;-77
2022/12/03 02:15:06;;;;;;;24.52;7.25;;;2.40;99.90;;;;;;5037098;28;20024;-78
2022/12/03 02:17:32;;;;;;;26.42;9.00;;;2.40;99.90;;;;;;5055637;28;20025;-78
2022/12/03 02:20:01;;;;;;;24.58;8.82;;;2.40;99.90;;;;;;5054987;28;20388;-78
2022/12/03 02:22:53;;;;;;;26.90;8.00;;;2.40;99.90;;;;;;5055333;28;20383;-78
2022/12/03 02:25:30;;;;;;;26.80;8.63;;;2.40;99.90;;;;;;5036891;28;20029;-78
2022/12/03 02:27:56;;;;;;;25.67;7.80;;;2.40;99.90;;;;;;5037265;28;20078;-78
2022/12/03 02:30:25;;;;;;;26.85;7.93;;;2.40;99.90;;;;;;5054191;28;20077;-78
2022/12/03 02:32:52;;;;;;;25.75;8.77;;;2.40;99.90;;;;;;5036355;28;20028;-78
2022/12/03 02:35:21;;;;;;;22.85;8.60;;;2.40;99.90;;;;;;5054868;28;20100;-78
2022/12/03 02:37:50;;;;;;;27.60;8.88;;;2.40;99.90;;;;;;5036393;28;20048;-78
2022/12/03 02:40:23;;;;;;;22.58;8.30;;;2.40;99.90;;;;;;5054519;28;20040;-77
2022/12/03 02:42:52;;;;;;;25.90;8.63;;;2.40;99.90;;;;;;5035968;28;20025;-78
2022/12/03 02:45:20;;;;;;;;;;;2.40;99.90;;;;;;5054224;28;20060;-78
2022/12/03 02:47:55;;;;;;;18.37;5.67;;;2.50;99.90;;;;;;5035770;28;19912;-77
2022/12/03 02:50:28;;;;;;;26.50;8.07;;;2.50;99.90;;;;;;5053644;28;20025;-77
2022/12/03 02:52:56;;;;;;;22.73;7.00;;;2.50;99.90;;;;;;5054282;28;20037;-77
2022/12/03 02:55:22;;;;;;;27.60;8.80;;;2.50;99.90;;;;;;5036324;28;20017;-77
2022/12/03 02:57:49;;;;;;;27.90;8.73;;;2.40;99.90;;;;;;5039814;28;20029;-78
2022/12/03 03:00:16;;;;;;;27.52;9.30;;;2.50;99.90;;;;;;5039894;28;20025;-77
2022/12/03 03:02:43;;;;;;;20.83;6.38;;;2.50;99.90;;;;;;5041130;28;20025;-78
2022/12/03 03:05:10;;;;;;;25.65;8.55;;;2.50;99.90;;;;;;5057514;28;20017;-77
2022/12/03 03:07:37;;;;;;;29.30;8.57;;;2.50;99.90;;;;;;5039695;28;20029;-77
2022/12/03 03:10:05;;;;;;;27.85;9.85;;;2.50;99.90;;;;;;5057367;28;20500;-77
2022/12/03 03:12:30;;;;;;;21.98;7.40;;;2.50;99.90;;;;;;5057720;28;20013;-77
2022/12/03 03:14:59;;;;;;;24.67;7.68;;;2.50;99.90;;;;;;5057444;28;20021;-78
2022/12/03 03:17:25;;;;;;;25.08;7.88;;;2.50;99.90;;;;;;5039934;28;20036;-77
2022/12/03 03:19:51;;;;;;;26.67;8.15;;;2.50;99.90;;;;;;5058070;28;20021;-77
2022/12/03 03:22:17;;;;;;;24.85;8.57;;;2.50;99.90;;;;;;5057537;28;20020;-77
2022/12/03 03:24:45;;;;;;;26.20;7.63;;;2.60;99.90;;;;;;5039381;28;20021;-77
2022/12/03 03:27:11;;;;;;;29.27;9.20;;;2.60;99.90;;;;;;5039423;28;20504;-77
2022/12/03 03:29:37;;;;;;;25.85;8.18;;;2.60;99.90;;;;;;5057405;28;20108;-77
2022/12/03 03:32:03;;;;;;;24.67;8.68;;;2.60;99.90;;;;;;5057511;28;20446;-77
2022/12/03 03:34:31;;;;;;;25.13;8.45;;;2.60;99.90;;;;;;5057260;28;20029;-77
2022/12/03 03:36:57;;;;;;;28.35;8.07;;;2.60;99.90;;;;;;5057307;28;20025;-77
2022/12/03 03:39:23;;;;;;;26.48;8.38;;;2.60;99.90;;;;;;5057301;28;20028;-77
2022/12/03 03:41:51;;;;;;;26.27;9.65;;;2.60;99.90;;;;;;5057736;28;20021;-77
2022/12/03 03:44:16;;;;;;;24.38;8.43;;;2.60;99.90;;;;;;5039593;28;20033;-77
2022/12/03 03:46:42;;;;;;;23.90;7.75;;;2.60;99.90;;;;;;5039150;28;20040;-78
2022/12/03 03:49:09;;;;;;;24.17;8.13;;;2.60;99.90;;;;;;5056851;28;20036;-77
2022/12/03 03:51:36;;;;;;;28.35;8.80;;;2.60;99.90;;;;;;5039107;28;20475;-77
2022/12/03 03:54:03;;;;;;;28.48;7.90;;;2.60;99.90;;;;;;5039191;28;20075;-77
2022/12/03 03:56:31;;;;;;;26.85;8.82;;;2.60;99.90;;;;;;5056591;28;20014;-78
2022/12/03 03:58:56;;;;;;;29.70;8.75;;;2.60;99.90;;;;;;5056472;28;20025;-77
2022/12/03 04:01:23;;;;;;;26.15;8.73;;;2.70;99.90;;;;;;5038291;28;20028;-78
2022/12/03 04:03:48;;;;;;;25.75;8.88;;;2.70;99.90;;;;;;5056843;28;20021;-78
2022/12/03 04:06:14;;;;;;;26.85;9.25;;;2.70;99.90;;;;;;5056041;28;20526;-77
2022/12/03 04:08:39;;;;;;;21.77;7.88;;;2.70;99.90;;;;;;5038250;28;20119;-77
2022/12/03 04:13:49;;;;;;;25.15;8.30;;;2.70;99.90;;;;;;5057197;28;20507;-77
2022/12/03 04:16:14;;;;;;;26.02;8.98;;;2.70;99.90;;;;;;5056151;28;20017;-78
2022/12/03 04:18:43;;;;;;;25.95;8.70;;;2.70;99.90;;;;;;5055927;28;20013;-77
2022/12/03 04:24:09;;;;;;;25.75;8.13;;;2.70;99.90;;;;;;4991391;28;20032;-75
2022/12/03 04:29:20;;;;;;;22.55;7.80;;;2.80;99.90;;;;;;5057546;28;20067;-75
2022/12/03 04:37:14;;;;;;;28.70;9.55;;;2.80;99.90;;;;;;5056596;28;20028;-75
2022/12/03 04:39:40;;;;;;;30.58;9.05;;;2.80;99.90;;;;;;5056747;28;20025;-75
2022/12/03 04:42:06;;;;;;;27.88;7.60;;;2.80;99.90;;;;;;5056420;28;20031;-75
2022/12/03 04:44:32;;;;;;;25.38;9.35;;;3.10;99.90;;;;;;5056458;28;20025;-75
2022/12/03 04:47:04;;;;;;;26.40;9.00;;;2.80;99.90;;;;;;5038499;28;20028;-76
2022/12/03 04:49:30;;;;;;;28.20;8.90;;;2.80;99.90;;;;;;5056122;28;20021;-76
2022/12/03 04:51:56;;;;;;;27.52;9.32;;;2.80;99.90;;;;;;5056451;28;20108;-76
2022/12/03 04:54:22;;;;;;;28.85;8.55;;;2.80;99.90;;;;;;5056160;28;20021;-76
2022/12/03 04:56:47;;;;;;;28.50;8.55;;;2.80;99.90;;;;;;5056093;28;20021;-76
2022/12/03 04:59:13;;;;;;;26.90;8.75;;;2.80;99.90;;;;;;5056031;28;20021;-76
2022/12/03 05:01:39;;;;;;;25.13;8.10;;;2.80;99.90;;;;;;5055344;28;20113;-76
2022/12/03 05:04:05;;;;;;;28.65;8.48;;;2.80;99.90;;;;;;5056531;28;20064;-76
2022/12/03 05:06:31;;;;;;;33.03;10.40;;;2.70;99.90;;;;;;5055805;28;20020;-75
2022/12/03 05:08:56;;;;;;;24.73;8.90;;;2.70;99.90;;;;;;5055895;28;20087;-75
2022/12/03 05:11:22;;;;;;;26.52;9.40;;;2.70;99.90;;;;;;5055763;28;20027;-75
2022/12/03 05:13:47;;;;;;;28.98;8.73;;;2.70;99.90;;;;;;5055808;28;20021;-76
2022/12/03 05:16:13;;;;;;;29.95;9.07;;;2.80;99.90;;;;;;5055772;28;20062;-76
2022/12/03 05:18:38;;;;;;;27.80;8.65;;;2.80;99.90;;;;;;5037303;28;20021;-76
2022/12/03 05:21:04;;;;;;;25.88;8.68;;;2.70;99.90;;;;;;5055629;28;20057;-76
2022/12/03 05:23:30;;;;;;;28.15;8.85;;;2.80;99.90;;;;;;5056241;28;20031;-76
2022/12/03 05:25:55;;;;;;;31.27;9.40;;;2.80;99.90;;;;;;5037408;28;20036;-76
2022/12/03 05:28:23;;;;;;;26.20;8.65;;;2.80;99.90;;;;;;5055142;28;20029;-76
2022/12/03 05:30:49;;;;;;;22.80;7.97;;;2.80;99.90;;;;;;5037016;28;20518;-76
2022/12/03 05:33:14;;;;;;;26.48;9.30;;;2.80;99.90;;;;;;5055304;28;20064;-76
2022/12/03 05:35:40;;;;;;;23.80;8.90;;;2.80;99.90;;;;;;5055195;28;20013;-76
2022/12/03 05:38:06;;;;;;;23.67;8.77;;;2.80;99.90;;;;;;5055213;28;20025;-76
2022/12/03 05:40:31;;;;;;;26.05;10.48;;;2.80;99.90;;;;;;5037407;28;20462;-76
2022/12/03 05:42:59;;;;;;;28.38;8.93;;;2.80;99.90;;;;;;5037318;28;20027;-76
2022/12/03 05:45:36;;;;;;;18.85;7.10;;;2.80;99.90;;;;;;5055319;28;20027;-76
2022/12/03 05:48:04;;;;;;;24.65;8.27;;;2.80;99.90;;;;;;5037481;28;20025;-76
2022/12/03 05:50:32;;;;;;;28.80;9.15;;;2.90;99.90;;;;;;5055064;28;20036;-76
2022/12/03 05:52:58;;;;;;;31.58;9.68;;;2.90;99.90;;;;;;5055731;28;20056;-76
2022/12/03 05:55:25;;;;;;;26.50;9.02;;;2.90;99.90;;;;;;5055710;28;20078;-76
2022/12/03 05:57:51;;;;;;;28.50;10.40;;;2.80;99.90;;;;;;5054870;28;20025;-75
2022/12/03 06:00:22;;;;;;;30.15;10.52;;;2.90;99.90;;;;;;5055251;28;20082;-76
2022/12/03 06:02:48;;;;;;;39.42;11.20;;;2.80;99.90;;;;;;5054968;28;20072;-76
2022/12/03 06:05:15;;;;;;;30.20;10.05;;;2.80;99.90;;;;;;5054469;28;20036;-75
2022/12/03 06:07:41;;;;;;;30.23;10.68;;;2.80;99.90;;;;;;5055194;28;20062;-75
2022/12/03 06:10:09;;;;;;;32.92;9.93;;;2.80;99.90;;;;;;5055919;28;20029;-75
2022/12/03 06:12:35;;;;;;;32.40;10.30;;;2.80;99.90;;;;;;5054808;28;20021;-75
2022/12/03 06:15:00;;;;;;;32.80;11.40;;;2.80;99.90;;;;;;5055174;28;20017;-75
2022/12/03 06:17:26;;;;;;;36.78;11.45;;;2.80;99.90;;;;;;5037227;28;20103;-74
2022/12/03 06:19:52;;;;;;;34.03;11.95;;;2.80;99.90;;;;;;5036186;28;20031;-75
2022/12/03 06:22:18;;;;;;;33.58;10.85;;;2.70;99.90;;;;;;5053839;28;20036;-75
2022/12/03 06:24:44;;;;;;;41.47;12.55;;;2.80;99.90;;;;;;5036344;28;20025;-75
2022/12/03 06:27:09;;;;;;;32.63;11.05;;;2.70;99.90;;;;;;5036078;28;20021;-75
2022/12/03 06:29:35;;;;;;;39.80;12.63;;;2.80;99.90;;;;;;5035660;28;20429;-75
2022/12/03 06:32:01;;;;;;;32.05;11.10;;;2.70;99.90;;;;;;5035485;28;20123;-75
2022/12/03 06:34:26;;;;;;;33.90;11.35;;;2.70;99.90;;;;;;5035949;28;20062;-75
2022/12/03 06:36:52;;;;;;;36.05;12.65;;;2.70;99.90;;;;;;5035892;28;20029;-75
2022/12/03 06:39:17;;;;;;;32.45;11.48;;;2.70;99.90;;;;;;5035843;28;20028;-75
2022/12/03 06:41:43;;;;;;;32.78;11.55;;;2.70;99.90;;;;;;5053759;28;20426;-75
2022/12/03 06:44:09;;;;;;;36.25;10.80;;;2.70;99.90;;;;;;5053969;28;20100;-75
2022/12/03 06:46:35;;;;;;;29.40;10.35;;;2.70;99.90;;;;;;5053439;28;20043;-75
2022/12/03 06:49:01;;;;;;;36.30;11.55;;;2.70;99.90;;;;;;5035902;28;20112;-75
2022/12/03 06:51:27;;;;;;;37.15;10.98;;;2.70;99.90;;;;;;5054342;28;20111;-75
2022/12/03 06:53:52;;;;;;;36.72;11.07;;;2.70;99.90;;;;;;5053731;28;20060;-75
2022/12/03 06:56:18;;;;;;;32.05;10.50;;;2.60;99.90;;;;;;5053529;28;20021;-75
2022/12/03 06:58:43;;;;;;;27.92;10.75;;;2.60;99.90;;;;;;5035668;28;20116;-75
2022/12/03 07:01:09;;;;;;;30.33;11.30;;;2.70;99.90;;;;;;5053501;28;20040;-75
2022/12/03 07:03:34;;;;;;;31.42;10.13;;;2.70;99.90;;;;;;5053502;28;20373;-76
2022/12/03 07:06:00;;;;;;;31.10;11.80;;;2.70;99.90;;;;;;5053494;28;20029;-75
2022/12/03 07:08:26;;;;;;;33.88;11.35;;;2.70;99.90;;;;;;5053336;28;20095;-75
2022/12/03 07:10:52;;;;;;;32.03;10.93;;;2.60;99.90;;;;;;5054015;28;20059;-75
2022/12/03 07:13:18;;;;;;;30.63;10.02;;;2.60;99.90;;;;;;5053574;28;20075;-75
2022/12/03 07:15:43;;;;;;;30.83;10.55;;;2.60;99.90;;;;;;5053314;28;20108;-76
2022/12/03 07:18:09;;;;;;;29.70;10.57;;;;;;;;;;5053535;28;20067;-75
2022/12/03 07:20:35;;;;;;;27.88;10.35;;;2.60;99.90;;;;;;5053000;28;20044;-76
2022/12/03 07:23:01;;;;;;;29.13;10.32;;;2.60;99.90;;;;;;5053782;28;20025;-75
2022/12/03 07:25:26;;;;;;;28.33;9.63;;;2.60;99.90;;;;;;5053116;28;20036;-75
2022/12/03 07:27:52;;;;;;;28.55;10.00;;;2.70;99.90;;;;;;5052959;28;20044;-75
2022/12/03 07:30:17;;;;;;;30.10;10.48;;;2.70;99.90;;;;;;5035435;28;20127;-75
2022/12/03 07:32:43;;;;;;;27.55;10.10;;;2.70;99.90;;;;;;5053774;28;20551;-76
2022/12/03 07:35:09;;;;;;;26.45;9.35;;;2.70;99.90;;;;;;5036902;28;20110;-75
2022/12/03 07:37:34;;;;;;;32.97;11.18;;;2.70;99.90;;;;;;5054235;28;20483;-76
2022/12/03 07:40:00;;;;;;;32.83;10.88;;;2.60;99.90;;;;;;5053500;28;20025;-75
2022/12/03 07:42:26;;;;;;;30.00;11.13;;;2.60;99.90;;;;;;5056323;28;20037;-73
2022/12/03 07:44:52;;;;;;;29.88;10.25;;;2.60;99.90;;;;;;5039008;28;20472;-74
2022/12/03 07:47:17;;;;;;;27.48;8.80;;;2.60;99.90;;;;;;5039052;28;20025;-74
2022/12/03 07:49:43;;;;;;;27.02;9.02;;;2.60;99.90;;;;;;5057530;28;20029;-74
2022/12/03 07:52:08;;;;;;;24.88;8.88;;;2.60;99.90;;;;;;5057040;28;20052;-74
2022/12/03 07:54:34;;;;;;;26.73;8.55;;;2.70;99.90;;;;;;5057014;28;20017;-74
2022/12/03 07:57:00;;;;;;;27.52;9.77;;;2.70;99.90;;;;;;5057675;28;20025;-74
2022/12/03 07:59:26;;;;;;;27.00;9.52;;;2.60;99.90;;;;;;5039229;28;20021;-74
2022/12/03 08:01:51;;;;;;;25.42;8.77;;;2.60;99.90;;;;;;5056495;28;20025;-74
2022/12/03 08:04:17;;;;;;;26.98;9.35;;;2.60;99.90;;;;;;5057097;28;20079;-73
2022/12/03 08:06:44;;;;;;;22.13;6.60;;;2.70;99.90;;;;;;5057159;28;20071;-74
2022/12/03 08:09:10;;;;;;;26.65;10.00;;;2.80;99.90;;;;;;5038952;28;20112;-73
2022/12/03 08:11:35;;;;;;;29.77;9.65;;;3.00;99.90;;;;;;5056596;28;20083;-73
2022/12/03 08:14:06;;;;;;;30.10;9.98;;;2.90;99.90;;;;;;5038550;28;20027;-73
2022/12/03 08:16:37;;;;;;;27.27;9.07;;;2.90;99.90;;;;;;5056561;28;20460;-74
2022/12/03 08:19:08;;;;;;;26.02;9.02;;;2.90;99.90;;;;;;5039770;28;20506;-76
2022/12/03 08:21:34;;;;;;;30.23;9.93;;;2.80;99.90;;;;;;5041885;28;20388;-76
2022/12/03 08:24:11;;;;;;;26.65;9.02;;;2.70;99.90;;;;;;5060057;28;20024;-76
2022/12/03 08:26:37;;;;;;;29.83;9.07;;;2.70;99.90;;;;;;5060651;28;20475;-77
2022/12/03 08:29:08;;;;;;;28.77;10.52;;;2.60;99.90;;;;;;5057255;28;20075;-77
2022/12/03 08:31:33;;;;;;;27.30;9.25;;;2.60;99.90;;;;;;5056855;28;20483;-76
2022/12/03 08:34:20;;;;;;;28.55;9.70;;;2.60;99.90;;;;;;5058961;28;20021;-76
2022/12/03 08:36:49;;;;;;;32.47;9.88;;;2.60;99.90;;;;;;5042453;28;20095;-76
2022/12/03 08:39:28;;;;;;;32.45;9.77;;;2.60;99.90;;;;;;5039523;28;20025;-75
2022/12/03 08:44:42;;;;;;;28.38;9.40;;;3.20;99.90;;;;;;5060003;28;20064;-76
2022/12/03 08:47:08;;;;;;;32.67;10.05;;;2.60;99.90;;;;;;5041390;28;20387;-76
2022/12/03 08:49:34;;;;;;;31.35;10.60;;;2.60;99.90;;;;;;5042042;28;20048;-76
2022/12/03 08:52:02;;;;;;;32.03;10.90;;;2.60;99.90;;;;;;5043341;28;20021;-76
2022/12/03 08:54:28;;;;;;;36.22;10.52;;;2.60;99.90;;;;;;5040946;28;20032;-76
2022/12/03 08:56:54;;;;;;;33.20;11.07;;;2.50;99.90;;;;;;5039729;28;20021;-76
2022/12/03 08:59:28;;;;;;;36.95;11.50;;;2.50;99.90;;;;;;5056898;28;20021;-76
2022/12/03 09:01:55;;;;;;;32.28;11.27;;;2.50;99.90;;;;;;5042405;28;20078;-76
2022/12/03 09:04:21;;;;;;;37.28;11.90;;;2.50;99.90;;;;;;5040621;28;20487;-76
2022/12/03 09:06:46;;;;;;;37.58;11.90;;;2.50;99.90;;;;;;5058023;28;20024;-77
2022/12/03 09:09:12;;;;;;;34.70;11.65;;;2.40;99.90;;;;;;5058623;28;20021;-76
2022/12/03 09:11:38;;;;;;;32.97;11.98;;;2.40;99.90;;;;;;5060866;28;20098;-76
2022/12/03 09:14:04;;;;;;;39.03;12.50;;;2.40;99.90;;;;;;5059554;28;20025;-76
2022/12/03 09:16:29;;;;;;;34.50;12.20;;;2.40;99.90;;;;;;5058633;28;20029;-76
2022/12/03 09:18:55;;;;;;;36.58;13.23;;;2.50;99.90;;;;;;5038556;28;20079;-76
2022/12/03 09:21:20;;;;;;;39.78;11.80;;;2.40;99.90;;;;;;5056616;28;20041;-76
2022/12/03 09:23:46;;;;;;;35.97;11.35;;;2.50;99.90;;;;;;5057811;28;20528;-76
2022/12/03 09:26:11;;;;;;;40.55;12.23;;;2.40;99.90;;;;;;5039713;28;20472;-77
2022/12/03 09:28:37;;;;;;;32.97;11.02;;;2.50;99.90;;;;;;5056730;28;20031;-76
2022/12/03 09:31:02;;;;;;;37.70;11.45;;;2.50;99.90;;;;;;5057185;28;20052;-76
2022/12/03 09:33:31;;;;;;;37.67;11.88;;;2.50;99.90;;;;;;5046244;28;20017;-75
2022/12/03 09:35:57;;;;;;;37.03;11.73;;;2.50;99.90;;;;;;5061521;28;20020;-76
2022/12/03 09:38:22;;;;;;;35.53;11.00;;;2.60;99.90;;;;;;5038154;28;20313;-76
2022/12/03 09:40:48;;;;;;;38.65;12.13;;;2.50;99.90;;;;;;5055666;28;20437;-76
2022/12/03 09:43:17;;;;;;;39.15;12.85;;;2.50;99.90;;;;;;5055640;28;20610;-76
2022/12/03 09:45:46;;;;;;;32.95;11.85;;;2.50;99.90;;;;;;5059493;28;20032;-76
2022/12/03 09:48:15;;;;;;;38.20;11.98;;;2.50;99.90;;;;;;5046222;28;20539;-77
2022/12/03 09:50:42;;;;;;;37.28;11.70;;;2.50;99.90;;;;;;5040090;28;20032;-77
2022/12/03 09:53:13;;;;;;;32.95;11.18;;;2.50;99.90;;;;;;5058014;28;20388;-76
2022/12/03 09:55:39;;;;;;;32.80;10.52;;;2.50;99.90;;;;;;5041901;28;20017;-75
2022/12/03 09:58:11;;;;;;;32.10;11.02;;;2.50;99.90;;;;;;5039477;28;20112;-76
2022/12/03 10:00:38;;;;;;;35.67;11.68;;;2.50;99.90;;;;;;5056139;28;20036;-76
2022/12/03 10:03:05;;;;;;;35.42;12.02;;;3.00;99.90;;;;;;5056618;28;20032;-77
2022/12/03 10:05:32;;;;;;;38.88;11.82;;;2.80;99.90;;;;;;5037813;28;20029;-77
2022/12/03 10:08:04;;;;;;;34.25;12.23;;;2.50;99.90;;;;;;5055544;28;20083;-76
2022/12/03 10:10:30;;;;;;;37.88;12.73;;;2.50;99.90;;;;;;5037427;28;20021;-77
2022/12/03 10:12:56;;;;;;;33.75;12.63;;;2.50;99.90;;;;;;5054854;28;20028;-77
2022/12/03 10:17:59;;;;;;;37.60;11.10;;;2.40;99.90;;;;;;5310960;22;20045;-77
2022/12/03 10:20:32;;;;;;;34.65;11.27;;;2.50;99.90;;;;;;5037230;28;20028;-76
2022/12/03 10:23:00;;;;;;;36.08;11.10;;;2.50;99.90;;;;;;5021175;28;20029;-74
2022/12/03 10:25:26;;;;;;;32.97;9.80;;;2.50;99.90;;;;;;5038049;28;20032;-76
2022/12/03 10:28:04;;;;;;;39.55;10.60;;;2.40;99.90;;;;;;5036694;28;20452;-75
2022/12/03 10:30:31;;;;;;;31.77;9.35;;;2.40;99.90;;;;;;5054380;28;20483;-76
2022/12/03 10:33:01;;;;;;;31.75;10.10;;;2.40;99.90;;;;;;5055447;28;20013;-76
2022/12/03 10:35:40;;;;;;;39.30;11.00;;;2.60;99.90;;;;;;5038330;28;20041;-77
2022/12/03 10:38:18;;;;;;;36.97;10.50;;;2.50;99.90;;;;;;5037757;28;20021;-76
2022/12/03 10:40:44;;;;;;;37.78;10.88;;;2.50;99.90;;;;;;5038010;28;20543;-76
2022/12/03 10:43:18;;;;;;;30.38;9.00;;;2.50;99.90;;;;;;5059183;28;20040;-74
2022/12/03 10:45:48;;;;;;;39.67;10.15;;;2.60;99.90;;;;;;5054170;28;20066;-74
2022/12/03 10:48:15;;;;;;;33.03;9.98;;;2.60;99.90;;;;;;5037535;28;20035;-74
2022/12/03 10:51:11;;;;;;;36.15;10.07;;;2.60;99.90;;;;;;5055029;28;20037;-75
2022/12/03 10:53:39;;;;;;;33.05;9.55;;;2.60;99.90;;;;;;5044330;28;20041;-75
2022/12/03 10:56:06;;;;;;;29.77;8.52;;;2.60;99.90;;;;;;5054759;28;20017;-75
2022/12/03 10:58:37;;;;;;;33.80;8.98;;;2.60;99.90;;;;;;5054681;28;20033;-76
2022/12/03 11:01:16;;;;;;;34.00;8.88;;;2.60;99.90;;;;;;5036084;28;20081;-76
2022/12/03 11:03:42;;;;;;;34.28;9.85;;;2.50;99.90;;;;;;5036917;28;20020;-75
2022/12/03 11:06:14;;;;;;;35.83;8.88;;;2.50;99.90;;;;;;5036126;28;20078;-76
2022/12/03 11:08:42;;;;;;;29.27;10.18;;;2.50;99.90;;;;;;5035851;28;20082;-75
2022/12/03 11:11:24;;;;;;;31.48;8.88;;;2.40;99.90;;;;;;5054295;28;20111;-75
2022/12/03 11:13:56;;;;;;;35.70;9.38;;;2.50;99.90;;;;;;5036724;28;20025;-76
2022/12/03 11:16:39;;;;;;;34.58;10.50;;;2.40;99.90;;;;;;5055081;28;20025;-77
2022/12/03 11:19:11;;;;;;;38.33;9.90;;;2.40;99.90;;;;;;5059563;28;20499;-77
2022/12/03 11:22:03;;;;;;;40.13;10.25;;;2.30;99.90;;;;;;5042361;28;20025;-75
2022/12/03 11:24:30;;;;;;;35.28;9.73;;;2.30;99.90;;;;;;5059381;28;20387;-75
2022/12/03 11:26:55;;;;;;;40.13;12.35;;;2.20;99.90;;;;;;5058288;28;20036;-76
2022/12/03 11:29:54;;;;;;;36.83;10.38;;;2.30;99.90;;;;;;5040039;28;20022;-77
2022/12/03 11:32:59;;;;;;;34.88;9.82;;;2.30;99.90;;;;;;5040394;28;20059;-78
2022/12/03 11:35:34;;;;;;;40.83;10.02;;;2.30;99.90;;;;;;5000320;28;20036;-77
2022/12/03 11:38:39;;;;;;;36.13;10.85;;;2.30;99.90;;;;;;5039553;28;20028;-78
2022/12/03 11:41:29;;;;;;;34.83;9.38;;;2.40;99.90;;;;;;5058634;28;20108;-79
2022/12/03 11:44:01;;;;;;;37.05;10.20;;;2.30;99.90;;;;;;5039602;28;20024;-78
2022/12/03 11:46:27;;;;;;;33.63;10.63;;;2.40;99.90;;;;;;5057192;28;20434;-79
2022/12/03 11:48:55;;;;;;;33.63;9.65;;;2.30;99.90;;;;;;5039135;28;20050;-78
2022/12/03 11:51:23;;;;;;;33.97;10.23;;;2.40;99.90;;;;;;5039554;28;20033;-78
2022/12/03 11:53:51;;;;;;;31.45;10.48;;;2.30;99.90;;;;;;5057439;28;20067;-77
2022/12/03 11:56:31;;;;;;;36.60;11.60;;;2.30;99.90;;;;;;5039469;28;20066;-78
2022/12/03 11:59:00;;;;;;;29.00;9.52;;;2.20;99.90;;;;;;5058516;28;20032;-78
2022/12/03 12:01:38;;;;;;;37.88;9.93;;;2.20;99.90;;;;;;5039374;28;20488;-79
2022/12/03 12:04:04;;;;;;;35.00;8.90;;;2.30;99.90;;;;;;5057953;28;20025;-80
2022/12/03 12:06:43;;;;;;;31.98;9.77;;;2.30;99.90;;;;;;5040736;28;20055;-78
2022/12/03 12:09:09;;;;;;;32.28;8.38;;;2.30;99.90;;;;;;5057173;28;20495;-78
2022/12/03 12:11:38;;;;;;;29.00;8.68;;;2.30;99.90;;;;;;5056982;28;20025;-79
2022/12/03 12:14:10;;;;;;;27.63;8.82;;;2.30;99.90;;;;;;5057124;28;20535;-78
2022/12/03 12:16:50;;;;;;;28.25;8.38;;;2.30;99.90;;;;;;5056536;28;20021;-78
2022/12/03 12:19:36;;;;;;;26.38;8.18;;;2.30;99.90;;;;;;5039728;28;20017;-78
2022/12/03 12:22:17;;;;;;;24.15;7.20;;;2.30;99.90;;;;;;5057341;28;20036;-78
2022/12/03 12:24:50;;;;;;;21.73;6.43;;;2.30;99.90;;;;;;5040347;28;20025;-78
2022/12/03 12:27:20;;;;;;;18.30;5.70;;;2.30;99.90;;;;;;5039256;28;20025;-80
2022/12/03 12:29:51;;;;;;;24.27;6.95;;;2.30;99.90;;;;;;5040425;28;20036;-79
2022/12/03 12:32:38;;;;;;;26.92;7.18;;;2.30;99.90;;;;;;5058965;28;20025;-80
2022/12/03 12:35:16;;;;;;;28.10;6.82;;;2.30;99.90;;;;;;5044223;28;20040;-79
2022/12/03 12:37:49;;;;;;;18.55;5.82;;;2.30;99.90;;;;;;5038695;28;20025;-80
2022/12/03 12:40:17;;;;;;;23.27;6.43;;;2.30;99.90;;;;;;5056535;28;20092;-79
2022/12/03 12:42:49;;;;;;;20.55;6.43;;;2.30;99.90;;;;;;5057702;28;20394;-79
2022/12/03 12:45:24;;;;;;;27.50;6.90;;;2.30;99.90;;;;;;5057098;28;20399;-79
2022/12/03 12:47:50;;;;;;;30.08;7.68;;;;;;;;;;5039827;28;20032;-79
2022/12/03 12:50:17;;;;;;;25.80;7.35;;;2.30;99.90;;;;;;5040714;28;20549;-79
2022/12/03 12:52:49;;;;;;;29.80;7.45;;;2.20;99.90;;;;;;5057708;28;20454;-78
2022/12/03 12:55:16;;;;;;;25.50;7.35;;;2.20;99.90;;;;;;5061206;28;20025;-76
2022/12/03 12:57:42;;;;;;;27.42;7.75;;;2.20;99.90;;;;;;5038659;28;20017;-78
2022/12/03 13:00:14;;;;;;;28.70;8.02;;;2.20;99.90;;;;;;5038780;28;20024;-78
2022/12/03 13:02:43;;;;;;;32.58;8.57;;;2.10;99.90;;;;;;5038088;28;20056;-78
2022/12/03 13:05:12;;;;;;;32.17;8.32;;;2.10;99.90;;;;;;5038385;28;20483;-78
2022/12/03 13:07:42;;;;;;;;;;;2.10;99.90;;;;;;5040403;28;20111;-78
2022/12/03 13:10:27;;;;;;;30.80;7.15;;;1.60;99.90;;;;;;5056802;28;19970;-79
2022/12/03 13:12:52;;;;;;;32.33;8.45;;;2.00;99.90;;;;;;5056844;28;20387;-77